Time;durP1;ratioP1;P1;durP2;ratioP2;P2;SDS_P1;SDS_P2;PMS_P1;PMS_P2;Temp;Humidity;BMP_temperature;BMP_pressure;BME280_temperature;BME280_humidity;BME280_pressure;Samples;Min_cycle;Max_cycle;Signal;HPM_P1;HPM_P2
2021/05/06 00:32:26;;;;;;;5.10;2.40;;;;;;;7.39;73.40;98866.66;5075331;28;20177;-72
2021/05/06 00:34:52;;;;;;;3.50;3.05;;;;;;;7.30;74.01;98868.03;5081409;28;20198;-72
2021/05/06 00:37:19;;;;;;;3.90;2.90;;;;;;;7.32;73.76;98861.63;5095572;28;20656;-70
2021/05/06 00:39:49;;;;;;;7.10;2.50;;;;;;;7.45;73.17;98863.63;5095266;28;20192;-72
2021/05/06 01:01:48;;;;;;;4.95;2.72;;;;;;;7.52;73.51;98838.22;5083982;28;20204;-72
2021/05/06 01:09:53;;;;;;;5.70;2.72;;;;;;;7.53;73.61;98826.56;5093035;28;20261;-71
2021/05/06 01:12:20;;;;;;;2.88;2.65;;;;;;;7.56;73.58;98836.25;5094651;28;20187;-72
2021/05/06 01:14:46;;;;;;;6.03;3.63;;;;;;;7.60;73.69;98835.97;5094803;28;20542;-71
2021/05/06 01:17:12;;;;;;;4.15;2.90;;;;;;;7.62;73.09;98826.03;5094514;28;20215;-71
2021/05/06 01:19:38;;;;;;;6.88;3.50;;;;;;;7.66;72.96;98824.00;5094378;28;20281;-71
2021/05/06 01:22:05;;;;;;;6.20;3.10;;;;;;;7.73;72.96;98826.25;5094306;28;20216;-71
2021/05/06 01:24:33;;;;;;;8.05;4.18;;;;;;;7.72;72.56;98823.66;5094520;28;20192;-72
2021/05/06 01:27:03;;;;;;;5.05;2.65;;;;;;;7.84;71.81;98828.28;5094225;28;20280;-72
2021/05/06 01:29:31;;;;;;;3.60;2.80;;;;;;;7.82;72.09;98832.88;5094595;28;20676;-70
2021/05/06 01:32:08;;;;;;;3.80;2.63;;;;;;;7.70;72.75;98830.94;5094123;28;20307;-72
2021/05/06 01:34:35;;;;;;;5.13;2.53;;;;;;;7.66;72.95;98842.78;5094478;28;20614;-70
2021/05/06 01:37:08;;;;;;;6.43;3.55;;;;;;;7.67;72.96;98837.34;5094595;28;20630;-70
2021/05/06 01:39:50;;;;;;;3.35;2.78;;;;;;;7.64;72.82;98840.19;5094550;28;20614;-73
2021/05/06 01:42:18;;;;;;;3.97;2.63;;;;;;;7.62;73.12;98835.84;5093845;28;20210;-71
2021/05/06 01:45:09;;;;;;;7.65;3.63;;;;;;;7.73;72.41;98825.38;5093896;28;20188;-71
2021/05/06 01:47:37;;;;;;;3.40;2.75;;;;;;;7.68;72.52;98830.16;5094143;28;20191;-71
2021/05/06 01:58:33;;;;;;;4.45;3.10;;;;;;;7.75;72.39;98828.84;5073529;28;20717;-72
2021/05/06 02:01:01;;;;;;;4.95;2.72;;;;;;;7.81;71.95;98833.00;5089050;28;20188;-71
2021/05/06 02:03:28;;;;;;;3.70;2.55;;;;;;;7.71;72.17;98828.16;5094158;28;20645;-71
2021/05/06 02:05:54;;;;;;;3.25;2.80;;;;;;;7.77;72.31;98836.78;5093580;28;20183;-72
2021/05/06 02:08:21;;;;;;;5.10;2.75;;;;;;;7.79;71.90;98833.06;5094001;28;20267;-72
2021/05/06 02:10:49;;;;;;;5.65;2.75;;;;;;;7.94;71.27;98840.22;5093104;28;20565;-72
2021/05/06 02:13:16;;;;;;;3.63;2.70;;;;;;;8.11;69.74;98827.59;5093521;28;20196;-72
2021/05/06 02:15:46;;;;;;;4.95;2.35;;;;;;;8.10;68.92;98824.06;5093705;28;20207;-72
2021/05/06 02:18:15;;;;;;;2.83;2.30;;;;;;;8.11;68.71;98825.78;5093361;28;20541;-72
2021/05/06 02:20:41;;;;;;;2.72;2.13;;;;;;;8.01;68.49;98824.63;5093445;28;20228;-72
2021/05/06 02:23:07;;;;;;;4.40;2.30;;;;;;;8.01;68.83;98819.25;5093626;28;20240;-71
2021/05/06 02:25:33;;;;;;;5.55;2.60;;;;;;;8.11;68.06;98815.06;5093376;28;20192;-71
2021/05/06 02:28:00;;;;;;;3.50;2.40;;;;;;;8.16;67.99;98814.78;5093498;28;20646;-70
2021/05/06 02:30:27;;;;;;;4.35;3.05;;;;;;;8.05;67.96;98809.19;5093390;28;20652;-70
2021/05/06 02:32:53;;;;;;;4.63;2.47;;;;;;;8.18;67.76;98812.88;5093463;28;20184;-72
2021/05/06 02:35:19;;;;;;;2.60;2.40;;;;;;;8.17;67.68;98803.09;5093344;28;20246;-72
2021/05/06 02:37:45;;;;;;;3.10;2.17;;;;;;;8.30;67.82;98805.91;5093290;28;20271;-71
2021/05/06 02:40:12;;;;;;;4.15;2.22;;;;;;;8.35;67.71;98795.75;5092925;28;20280;-70
2021/05/06 02:42:39;;;;;;;5.35;2.25;;;;;;;8.38;68.27;98794.69;5092851;28;20242;-70
2021/05/06 02:45:08;;;;;;;2.90;2.40;;;;;;;8.25;68.41;98790.06;5093385;28;20238;-72
2021/05/06 02:47:34;;;;;;;3.25;2.50;;;;;;;8.32;69.51;98794.13;5093447;28;20287;-71
2021/05/06 02:50:00;;;;;;;9.52;3.17;;;;;;;8.45;68.76;98785.34;5092921;28;20204;-72
2021/05/06 02:52:32;;;;;;;3.78;2.33;;;;;;;8.54;69.02;98784.75;5093221;28;20267;-71
2021/05/06 02:55:05;;;;;;;4.95;2.50;;;;;;;8.55;69.46;98784.66;5093470;28;20181;-71
2021/05/06 02:57:38;;;;;;;4.25;2.88;;;;;;;8.57;69.42;98792.63;5092922;28;20192;-70
2021/05/06 03:02:53;;;;;;;4.72;2.45;;;;;;;8.55;69.72;98782.00;5092755;28;20276;-72
2021/05/06 03:05:23;;;;;;;3.75;2.30;;;;;;;8.65;69.49;98781.41;5092915;28;20519;-72
2021/05/06 03:07:56;;;;;;;3.60;2.33;;;;;;;8.44;70.65;98779.13;5093253;28;20187;-72
2021/05/06 03:10:33;;;;;;;4.95;2.75;;;;;;;8.54;72.20;98772.19;5093075;28;20192;-71
2021/05/06 03:21:36;;;;;;;4.97;3.35;;;;;;;8.06;74.30;98782.31;5092741;28;20198;-70
2021/05/06 03:24:04;;;;;;;3.90;2.38;;;;;;;7.95;75.44;98779.41;5095120;28;20192;-72
2021/05/06 03:26:32;;;;;;;4.95;2.70;;;;;;;7.98;75.72;98781.03;5097259;28;20541;-74
2021/05/06 03:29:01;;;;;;;6.35;3.00;;;;;;;7.94;76.50;98781.22;5096572;28;20591;-71
2021/05/06 03:31:44;;;;;;;5.45;2.88;;;;;;;8.12;76.52;98773.91;5096618;28;20249;-72
2021/05/06 03:42:18;;;;;;;4.07;2.65;;;;;;;8.17;77.63;98753.97;5096231;28;20246;-71
2021/05/06 03:45:07;;;;;;;3.92;2.70;;;;;;;8.13;77.35;98753.31;5096424;28;20233;-72
2021/05/06 04:15:30;;;;;;;5.70;3.08;;;;;;;8.06;81.29;98730.50;5095613;28;20241;-70
2021/05/06 04:18:01;;;;;;;6.93;3.22;;;;;;;8.02;81.51;98721.78;5095920;28;20187;-72
2021/05/06 04:26:04;;;;;;;4.55;3.30;;;;;;;8.28;79.09;98724.69;5095461;28;20206;-71
2021/05/06 04:36:57;;;;;;;4.93;3.33;;;;;;;8.11;80.47;98723.88;5095257;28;20199;-72
2021/05/06 04:42:33;;;;;;;4.80;4.15;;;;;;;8.35;81.93;98713.47;5068046;28;20237;-71
2021/05/06 04:56:02;;;;;;;6.28;4.05;;;;;;;8.42;79.22;98723.84;5095134;28;20207;-72
2021/05/06 05:03:59;;;;;;;6.70;4.85;;;;;;;8.43;79.22;98723.72;5094784;28;20221;-72
2021/05/06 05:06:27;;;;;;;7.28;4.07;;;;;;;8.12;79.95;98728.31;5094988;28;20593;-72
2021/05/06 05:09:01;;;;;;;13.13;5.18;;;;;;;8.21;81.12;98729.56;5092797;28;20196;-71
2021/05/06 05:11:43;;;;;;;9.43;4.15;;;;;;;8.34;80.69;98729.63;5094506;28;20203;-73
2021/05/06 05:20:05;;;;;;;4.85;3.58;;;;;;;8.54;79.03;98723.91;5086825;28;20192;-72
2021/05/06 05:25:21;;;;;;;5.60;3.80;;;;;;;8.41;79.32;98736.41;5094131;28;20191;-73
2021/05/06 05:27:48;;;;;;;10.82;3.65;;;;;;;8.18;80.78;98740.47;5094333;28;20184;-73
2021/05/06 05:30:15;;;;;;;3.80;3.47;;;;;;;7.92;81.72;98750.13;5094636;28;20211;-71
2021/05/06 05:32:41;;;;;;;7.18;4.35;;;;;;;7.70;82.50;98743.38;5092881;28;20199;-72
2021/05/06 05:35:12;;;;;;;5.20;3.90;;;;;;;7.65;83.13;98745.47;5080697;28;20551;-71
2021/05/06 05:37:41;;;;;;;4.13;3.55;;;;;;;7.59;83.97;98736.94;5091614;28;20210;-71
2021/05/06 05:40:15;;;;;;;4.65;4.03;;;;;;;7.62;83.72;98734.06;5094174;28;20195;-71
2021/05/06 05:42:54;;;;;;;6.90;4.55;;;;;;;7.82;84.28;98743.59;5093795;28;20717;-70
2021/05/06 05:56:25;;;;;;;6.28;4.30;;;;;;;7.96;83.18;98723.97;5073783;28;20229;-72
2021/05/06 05:58:52;;;;;;;4.80;3.50;;;;;;;8.19;81.50;98730.63;5084701;28;20270;-71
2021/05/06 06:01:18;;;;;;;4.75;3.63;;;;;;;8.30;80.56;98731.66;5093974;28;20244;-70
2021/05/06 06:03:44;;;;;;;5.00;3.60;;;;;;;8.29;80.26;98729.94;5094056;28;20298;-70
2021/05/06 06:06:10;;;;;;;4.40;3.42;;;;;;;8.41;79.18;98724.78;5093570;28;20286;-71
2021/05/06 06:08:37;;;;;;;6.78;3.67;;;;;;;8.46;79.68;98722.69;5093988;28;20260;-71
2021/05/06 06:11:03;;;;;;;10.23;4.53;;;;;;;8.56;80.06;98719.31;5094074;28;20184;-73
2021/05/06 06:13:29;;;;;;;5.70;3.47;;;;;;;8.73;79.97;98709.34;5093525;28;20223;-72
2021/05/06 06:16:00;;;;;;;5.85;3.95;;;;;;;8.83;77.95;98710.44;5093927;28;20552;-71
2021/05/06 06:18:33;;;;;;;4.38;3.97;;;;;;;8.68;77.59;98717.69;5093677;28;20185;-71
2021/05/06 06:21:03;;;;;;;5.45;4.18;;;;;;;8.65;77.41;98711.63;5093802;28;20188;-73
2021/05/06 06:23:30;;;;;;;5.80;3.75;;;;;;;8.64;78.83;98704.53;5093482;28;20209;-74
2021/05/06 06:25:57;;;;;;;8.57;5.20;;;;;;;8.81;76.82;98700.78;5093698;28;20191;-71
2021/05/06 06:28:24;;;;;;;10.60;4.60;;;;;;;8.96;77.46;98700.63;5093602;28;20192;-71
2021/05/06 06:30:51;;;;;;;4.25;3.85;;;;;;;9.13;76.81;98704.00;5093617;28;20191;-73
2021/05/06 06:33:17;;;;;;;9.10;3.83;;;;;;;9.33;75.41;98713.44;5093816;28;20200;-71
2021/05/06 06:35:44;;;;;;;9.18;4.38;;;;;;;9.09;76.08;98705.16;5093402;28;20650;-71
2021/05/06 06:38:10;;;;;;;5.65;4.25;;;;;;;9.22;76.28;98706.09;5093009;28;20197;-73
2021/05/06 06:40:36;;;;;;;5.57;3.67;;;;;;;9.12;74.86;98699.63;5093365;28;20258;-72
2021/05/06 06:43:03;;;;;;;4.22;3.75;;;;;;;9.17;75.28;98702.84;5093546;28;20681;-72
2021/05/06 06:45:30;;;;;;;5.38;4.00;;;;;;;9.32;73.81;98696.47;5093063;28;20207;-71
2021/05/06 06:47:56;;;;;;;5.78;3.65;;;;;;;9.39;74.05;98692.38;5093243;28;20218;-74
2021/05/06 06:50:23;;;;;;;7.15;4.30;;;;;;;9.43;73.87;98697.53;5093420;28;20655;-72
2021/05/06 06:52:50;;;;;;;4.05;3.45;;;;;;;9.28;73.63;98686.88;5093259;28;20595;-72
2021/05/06 06:55:16;;;;;;;5.22;3.65;;;;;;;8.92;75.68;98693.72;5093282;28;20207;-71
2021/05/06 06:57:42;;;;;;;7.75;4.40;;;;;;;8.89;77.68;98690.41;5095634;28;20200;-72
2021/05/06 07:00:09;;;;;;;8.13;4.72;;;;;;;8.95;76.24;98687.28;5097379;28;20217;-72
2021/05/06 07:02:35;;;;;;;6.85;5.40;;;;;;;8.90;76.26;98697.47;5097254;28;20210;-73
2021/05/06 07:05:01;;;;;;;6.60;4.45;;;;;;;8.78;76.58;98693.78;5097149;28;20288;-71
2021/05/06 07:07:28;;;;;;;7.63;6.90;;;;;;;8.91;77.66;98696.50;5097598;28;20551;-71
2021/05/06 07:09:54;;;;;;;6.45;4.60;;;;;;;9.05;77.90;98687.56;5097906;28;20510;-71
2021/05/06 07:12:21;;;;;;;7.13;5.22;;;;;;;9.29;77.32;98685.91;5097275;28;20599;-71
2021/05/06 07:14:47;;;;;;;9.88;5.50;;;;;;;9.52;76.64;98670.94;5097023;28;20185;-72
2021/05/06 07:17:13;;;;;;;6.43;5.38;;;;;;;9.72;75.87;98677.63;5096916;28;20190;-72
2021/05/06 07:19:39;;;;;;;6.70;5.75;;;;;;;10.00;74.68;98678.38;5096996;28;20639;-73
2021/05/06 07:22:06;;;;;;;7.38;5.68;;;;;;;9.98;73.85;98677.63;5096642;28;20258;-73
2021/05/06 07:24:33;;;;;;;9.18;5.95;;;;;;;10.13;73.27;98670.28;5097390;28;20234;-72
2021/05/06 07:27:00;;;;;;;7.68;5.72;;;;;;;10.06;73.61;98680.63;5095739;28;20652;-72
2021/05/06 07:29:26;;;;;;;8.30;5.47;;;;;;;10.03;73.60;98668.25;5096256;28;20220;-71
2021/05/06 07:31:53;;;;;;;8.85;5.60;;;;;;;10.21;73.25;98676.00;5096390;28;20193;-71
2021/05/06 07:34:19;;;;;;;15.10;11.70;;;;;;;10.40;72.86;98664.78;5096274;28;20186;-73
2021/05/06 07:36:46;;;;;;;11.93;6.78;;;;;;;10.40;72.86;98667.47;5096275;28;20199;-72
2021/05/06 07:39:12;;;;;;;8.80;5.50;;;;;;;10.67;72.30;98669.13;5095990;28;20226;-72
2021/05/06 07:41:39;;;;;;;7.50;5.38;;;;;;;10.87;70.97;98667.69;5096048;28;20223;-72
2021/05/06 07:44:07;;;;;;;6.40;5.80;;;;;;;10.89;69.94;98669.28;5096616;28;20704;-72
2021/05/06 07:46:33;;;;;;;8.00;6.20;;;;;;;10.73;70.29;98666.00;5096345;28;20181;-72
2021/05/06 07:49:00;;;;;;;6.78;5.80;;;;;;;10.94;70.27;98660.84;5077290;28;20224;-71
2021/05/06 07:51:26;;;;;;;6.90;6.20;;;;;;;10.91;71.56;98661.09;5096023;28;20595;-72
2021/05/06 07:53:54;;;;;;;6.78;4.82;;;;;;;10.89;71.79;98669.28;5096615;28;20230;-71
2021/05/06 07:56:20;;;;;;;10.27;6.22;;;;;;;10.97;72.25;98666.88;5096352;28;20203;-71
2021/05/06 07:58:47;;;;;;;8.02;5.90;;;;;;;10.97;72.66;98672.28;5095552;28;20187;-71
2021/05/06 08:01:14;;;;;;;8.38;5.35;;;;;;;11.05;71.07;98669.00;5095959;28;20626;-72
2021/05/06 08:03:40;;;;;;;7.63;6.85;;;;;;;11.29;71.54;98654.66;5095977;28;20243;-72
2021/05/06 08:06:07;;;;;;;6.20;5.15;;;;;;;11.37;69.80;98655.78;5096069;28;20196;-74
2021/05/06 08:08:33;;;;;;;6.68;5.43;;;;;;;11.07;69.44;98653.56;5095494;28;20279;-75
2021/05/06 08:11:00;;;;;;;7.88;6.03;;;;;;;11.03;70.47;98670.94;5096024;28;20626;-74
2021/05/06 08:13:28;;;;;;;11.48;8.13;;;;;;;11.06;70.47;98668.88;5095650;28;20200;-72
2021/05/06 08:15:56;;;;;;;7.60;6.07;;;;;;;10.84;70.34;98666.94;5096605;28;20199;-72
2021/05/06 08:18:23;;;;;;;6.68;5.97;;;;;;;10.82;69.51;98662.63;5095732;28;20584;-74
2021/05/06 08:20:49;;;;;;;8.45;6.30;;;;;;;10.80;70.57;98653.81;5096507;28;20223;-73
2021/05/06 08:23:16;;;;;;;6.93;5.97;;;;;;;10.67;70.92;98653.84;5095692;28;20246;-73
2021/05/06 08:25:42;;;;;;;12.13;6.97;;;;;;;10.88;71.27;98653.22;5096667;28;20245;-73
2021/05/06 08:28:08;;;;;;;7.15;6.50;;;;;;;11.22;71.01;98648.88;5095745;28;20250;-72
2021/05/06 08:30:35;;;;;;;11.45;6.85;;;;;;;11.59;70.23;98651.44;5095771;28;20184;-74
2021/05/06 08:33:04;;;;;;;7.50;5.22;;;;;;;11.76;68.68;98660.91;5095012;28;20191;-72
2021/05/06 08:35:31;;;;;;;7.72;5.75;;;;;;;12.00;67.00;98659.00;5090963;28;20203;-72
2021/05/06 08:37:57;;;;;;;9.32;4.40;;;;;;;12.06;64.90;98650.44;5091850;28;20556;-73
2021/05/06 08:40:23;;;;;;;6.88;5.22;;;;;;;11.62;64.96;98641.28;5094986;28;20235;-74
2021/05/06 08:42:52;;;;;;;7.47;5.28;;;;;;;12.02;66.12;98646.25;5094578;28;20862;-72
2021/05/06 08:45:19;;;;;;;5.53;4.28;;;;;;;12.67;63.00;98638.38;5095643;28;20608;-76
2021/05/06 08:47:46;;;;;;;6.13;4.85;;;;;;;12.55;62.75;98634.84;5094248;28;20215;-74
2021/05/06 08:50:17;;;;;;;7.60;5.43;;;;;;;12.47;63.04;98638.16;5095869;28;20267;-72
2021/05/06 08:52:47;;;;;;;7.18;4.90;;;;;;;12.41;63.74;98621.59;5094073;28;20227;-74
2021/05/06 08:55:14;;;;;;;6.38;4.85;;;;;;;12.17;64.58;98624.47;5095151;28;20184;-75
2021/05/06 08:57:41;;;;;;;6.68;4.80;;;;;;;12.28;63.55;98630.69;5094474;28;20634;-75
2021/05/06 09:00:08;;;;;;;6.25;4.20;;;;;;;12.28;62.80;98630.69;5094145;28;20200;-74
2021/05/06 09:02:34;;;;;;;8.85;5.72;;;;;;;12.02;64.38;98627.38;5079625;28;20212;-73
2021/05/06 09:05:05;;;;;;;5.50;4.72;;;;;;;11.98;64.16;98619.66;5094774;28;20273;-73
2021/05/06 09:07:32;;;;;;;4.97;4.18;;;;;;;11.36;65.83;98623.56;5094672;28;20614;-72
2021/05/06 09:09:58;;;;;;;6.47;5.50;;;;;;;11.15;67.66;98626.06;5094856;28;20539;-74
2021/05/06 09:12:34;;;;;;;6.40;4.95;;;;;;;11.43;66.01;98619.41;5094445;28;20250;-71
2021/05/06 09:15:09;;;;;;;4.75;4.35;;;;;;;11.42;65.93;98610.47;5094436;28;20282;-74
2021/05/06 09:17:35;;;;;;;4.60;4.20;;;;;;;11.09;67.41;98615.75;5094636;28;20553;-73
2021/05/06 09:20:14;;;;;;;6.10;4.93;;;;;;;10.86;67.40;98621.03;5094152;28;20204;-73
2021/05/06 09:22:44;;;;;;;7.97;7.05;;;;;;;10.93;67.37;98614.22;5094300;28;20254;-74
2021/05/06 09:25:30;;;;;;;9.02;6.07;;;;;;;11.15;66.88;98608.06;5094490;28;20199;-74
2021/05/06 09:28:11;;;;;;;7.15;5.55;;;;;;;11.00;67.89;98598.44;5094095;28;20320;-73
2021/05/06 09:30:48;;;;;;;7.15;4.63;;;;;;;11.20;67.35;98600.47;5094784;28;20573;-74
2021/05/06 09:33:14;;;;;;;6.78;4.60;;;;;;;11.13;67.59;98603.78;5094394;28;20192;-71
2021/05/06 09:35:42;;;;;;;5.60;4.85;;;;;;;11.11;67.52;98590.41;5093975;28;20183;-71
2021/05/06 09:38:24;;;;;;;10.20;5.85;;;;;;;11.01;68.95;98597.47;5094077;28;20196;-72
2021/05/06 09:40:51;;;;;;;7.80;5.85;;;;;;;11.02;70.08;98583.88;5093717;28;20685;-72
2021/05/06 09:43:23;;;;;;;6.15;5.20;;;;;;;11.22;70.43;98576.13;5093768;28;20299;-71
2021/05/06 09:45:49;;;;;;;5.70;4.78;;;;;;;11.20;70.06;98570.00;5093468;28;20235;-72
2021/05/06 09:48:16;;;;;;;10.35;5.95;;;;;;;11.20;69.68;98570.00;5093976;28;20200;-71
2021/05/06 09:50:45;;;;;;;10.57;5.90;;;;;;;11.22;70.96;98562.66;5094284;28;20289;-72
2021/05/06 09:53:14;;;;;;;6.00;5.25;;;;;;;11.35;69.90;98555.34;5094167;28;20221;-72
2021/05/06 09:55:43;;;;;;;10.27;5.65;;;;;;;11.65;69.53;98548.50;5093828;28;20202;-72
2021/05/06 09:58:14;;;;;;;6.25;5.10;;;;;;;12.22;67.75;98543.97;5094133;28;20188;-71
2021/05/06 10:00:40;;;;;;;8.95;6.03;;;;;;;13.05;64.60;98547.88;5093708;28;20222;-71
2021/05/06 10:03:11;;;;;;;6.10;4.50;;;;;;;13.42;61.62;98569.94;5093951;28;20200;-71
2021/05/06 10:05:38;;;;;;;7.20;4.80;;;;;;;13.52;60.56;98586.22;5094300;28;20560;-72
2021/05/06 10:08:05;;;;;;;6.18;4.90;;;;;;;13.22;60.93;98565.34;5093680;28;20199;-72
2021/05/06 10:10:33;;;;;;;9.98;5.30;;;;;;;12.97;62.19;98536.88;5093719;28;20215;-73
2021/05/06 10:13:01;;;;;;;10.77;5.78;;;;;;;12.72;62.48;98518.19;5094255;28;20192;-71
2021/05/06 10:15:28;;;;;;;9.38;5.60;;;;;;;13.01;62.43;98501.34;5094536;28;20193;-72
2021/05/06 10:17:55;;;;;;;8.25;5.18;;;;;;;13.06;61.97;98512.59;5093177;28;20225;-71
2021/05/06 10:20:24;;;;;;;9.82;6.18;;;;;;;12.89;62.58;98532.13;5093701;28;20200;-71
2021/05/06 10:22:51;;;;;;;8.73;5.72;;;;;;;12.70;63.86;98530.94;5093414;28;20227;-72
2021/05/06 10:25:19;;;;;;;11.00;6.10;;;;;;;12.48;63.85;98525.63;5093617;28;20184;-72
2021/05/06 10:27:46;;;;;;;14.30;7.15;;;;;;;12.34;64.43;98534.00;5093403;28;20279;-72
2021/05/06 10:30:14;;;;;;;36.25;22.35;;;;;;;12.33;65.35;98533.16;5093709;28;20204;-71
2021/05/06 10:32:44;;;;;;;35.10;20.77;;;;;;;12.45;64.70;98532.13;5093303;28;20311;-71
2021/05/06 10:35:12;;;;;;;10.38;7.53;;;;;;;12.71;64.34;98516.47;5093311;28;20658;-71
2021/05/06 10:37:42;;;;;;;7.15;5.93;;;;;;;12.84;63.79;98501.91;5094037;28;20188;-71
2021/05/06 10:40:42;;;;;;;12.10;8.50;;;;;;;12.75;63.26;98497.28;5093626;28;20552;-71
2021/05/06 10:43:25;;;;;;;6.03;5.40;;;;;;;12.79;63.58;98501.47;5092315;28;20199;-72
2021/05/06 10:45:57;;;;;;;5.50;4.60;;;;;;;12.52;64.99;98492.00;5093782;28;20183;-73
2021/05/06 10:48:24;;;;;;;9.38;5.05;;;;;;;12.41;65.47;98494.72;5093371;28;20188;-72
2021/05/06 10:50:51;;;;;;;8.35;5.05;;;;;;;12.22;66.59;98487.31;5093502;28;20208;-72
2021/05/06 10:53:29;;;;;;;6.43;5.82;;;;;;;12.16;68.11;98477.00;5093723;28;20218;-71
2021/05/06 10:55:56;;;;;;;8.63;5.47;;;;;;;12.33;67.69;98465.69;5093432;28;20259;-72
2021/05/06 10:58:36;;;;;;;7.15;4.57;;;;;;;12.25;67.91;98478.94;5093947;28;20207;-72
2021/05/06 11:01:39;;;;;;;11.95;4.00;;;;;;;11.91;69.08;98495.19;5093652;28;20188;-72
2021/05/06 11:04:10;;;;;;;7.20;4.30;;;;;;;11.82;70.27;98488.69;5093217;28;20243;-72
2021/05/06 11:06:41;;;;;;;7.40;6.15;;;;;;;11.84;71.03;98478.63;5093236;28;20203;-72
2021/05/06 11:09:42;;;;;;;7.25;5.00;;;;;;;12.02;68.23;98476.31;5093378;28;20196;-73
2021/05/06 11:12:22;;;;;;;6.65;5.30;;;;;;;12.14;69.49;98478.97;5089968;28;20199;-73
2021/05/06 11:15:22;;;;;;;6.80;4.20;;;;;;;12.09;69.24;98471.25;5093312;28;20188;-72
2021/05/06 11:17:50;;;;;;;9.27;4.55;;;;;;;12.05;69.86;98459.88;5093284;28;20275;-71
2021/05/06 11:20:39;;;;;;;11.30;4.88;;;;;;;12.24;69.08;98440.31;5093310;28;20204;-72
2021/05/06 11:23:18;;;;;;;12.10;5.70;;;;;;;12.37;69.11;98440.16;5093188;28;20220;-71
2021/05/06 11:25:50;;;;;;;7.97;5.15;;;;;;;12.64;67.80;98439.66;5092574;28;20208;-71
2021/05/06 11:28:39;;;;;;;8.25;6.45;;;;;;;12.71;66.65;98440.84;5092837;28;20237;-71
2021/05/06 11:31:05;;;;;;;4.90;3.30;;;;;;;12.79;66.74;98433.94;5083452;28;20200;-72
2021/05/06 11:33:33;;;;;;;4.65;3.42;;;;;;;12.70;66.33;98424.78;5093058;28;20268;-71
2021/05/06 11:36:01;;;;;;;6.47;4.75;;;;;;;12.62;67.30;98425.44;5092740;28;20200;-71
2021/05/06 11:38:50;;;;;;;3.90;3.40;;;;;;;12.57;66.85;98422.25;5093000;28;20279;-72
2021/05/06 11:41:17;;;;;;;5.40;3.35;;;;;;;12.19;67.42;98412.88;5092386;28;20275;-71
2021/05/06 11:43:46;;;;;;;8.68;3.45;;;;;;;12.02;68.76;98410.72;5092658;28;20212;-72
2021/05/06 11:46:15;;;;;;;8.07;3.35;;;;;;;11.71;70.56;98405.09;5096701;28;20180;-71
2021/05/06 11:48:44;;;;;;;6.90;4.03;;;;;;;11.77;73.35;98406.44;5095900;28;20246;-73
2021/05/06 11:51:11;;;;;;;5.68;3.53;;;;;;;11.66;72.08;98389.31;5096680;28;20283;-72
2021/05/06 11:53:39;;;;;;;4.07;2.80;;;;;;;11.54;71.81;98384.06;5096169;28;20271;-73
2021/05/06 11:56:12;;;;;;;5.53;3.53;;;;;;;11.46;73.44;98381.97;5090013;28;20224;-70
2021/05/06 11:58:40;;;;;;;7.68;3.30;;;;;;;11.41;72.64;98382.34;5096501;28;20273;-73
2021/05/06 12:01:06;;;;;;;4.38;3.22;;;;;;;11.35;73.34;98374.78;5097097;28;20200;-72
2021/05/06 12:03:37;;;;;;;4.50;3.78;;;;;;;11.15;72.75;98375.53;5096430;28;20219;-73
2021/05/06 12:06:05;;;;;;;2.92;2.53;;;;;;;10.95;72.26;98367.19;5096609;28;20180;-74
2021/05/06 12:08:34;;;;;;;3.38;2.60;;;;;;;11.01;73.51;98363.13;5096381;28;20279;-71
2021/05/06 12:11:03;;;;;;;3.85;2.72;;;;;;;11.02;72.45;98371.09;5096094;28;20203;-72
2021/05/06 12:13:35;;;;;;;3.80;2.75;;;;;;;10.91;73.37;98365.72;5095808;28;20213;-73
2021/05/06 12:16:21;;;;;;;3.78;2.80;;;;;;;11.00;73.33;98367.69;5095966;28;20281;-72
2021/05/06 12:18:55;;;;;;;5.00;3.22;;;;;;;11.04;73.86;98369.16;5096521;28;20612;-72
2021/05/06 12:21:29;;;;;;;4.45;2.95;;;;;;;11.22;72.59;98369.53;5095980;28;20203;-73
2021/05/06 12:23:55;;;;;;;3.13;2.40;;;;;;;11.34;71.25;98354.19;5095593;28;20250;-72
2021/05/06 12:26:21;;;;;;;3.33;2.35;;;;;;;11.47;70.15;98352.22;5094778;28;20198;-73
2021/05/06 12:28:48;;;;;;;9.60;5.40;;;;;;;11.51;70.54;98339.34;5095490;28;20624;-74
2021/05/06 12:31:14;;;;;;;2.45;2.25;;;;;;;11.45;70.57;98334.47;5095440;28;20276;-76
2021/05/06 12:33:40;;;;;;;3.05;2.85;;;;;;;11.50;69.88;98331.38;5095346;28;20196;-72
2021/05/06 12:36:11;;;;;;;2.90;2.10;;;;;;;11.43;69.69;98313.03;5096046;28;20257;-72
2021/05/06 12:38:40;;;;;;;3.83;2.58;;;;;;;11.59;69.03;98319.84;5095321;28;20623;-73
2021/05/06 12:41:06;;;;;;;2.83;2.30;;;;;;;11.43;69.15;98318.41;5095391;28;20243;-74
2021/05/06 12:43:34;;;;;;;3.55;2.20;;;;;;;11.47;68.74;98309.09;5094910;28;20218;-72
2021/05/06 12:46:07;;;;;;;3.90;3.20;;;;;;;11.45;69.53;98312.91;5095805;28;20179;-72
2021/05/06 12:48:38;;;;;;;2.90;2.70;;;;;;;11.66;68.66;98307.56;5095624;28;20645;-71
2021/05/06 12:51:05;;;;;;;2.65;2.45;;;;;;;11.71;69.43;98299.94;5095383;28;20298;-72
2021/05/06 12:53:31;;;;;;;4.15;2.50;;;;;;;11.75;69.84;98290.63;5095496;28;20273;-73
2021/05/06 12:55:58;;;;;;;3.88;2.50;;;;;;;11.75;70.43;98289.78;5095623;28;20652;-72
2021/05/06 12:58:27;;;;;;;2.95;2.45;;;;;;;12.09;69.09;98283.25;5095971;28;20237;-73
2021/05/06 13:01:13;;;;;;;3.35;2.67;;;;;;;12.36;68.98;98279.19;5094505;28;20189;-73
2021/05/06 13:03:44;;;;;;;2.75;2.53;;;;;;;12.62;68.13;98270.69;5094860;28;20315;-70
2021/05/06 13:06:13;;;;;;;3.55;2.63;;;;;;;12.82;68.11;98250.88;5091018;28;20192;-71
2021/05/06 13:08:40;;;;;;;3.25;2.92;;;;;;;13.18;67.25;98253.94;5094817;28;20623;-72
2021/05/06 13:11:09;;;;;;;2.75;2.10;;;;;;;13.05;66.19;98261.47;5095119;28;20204;-71
2021/05/06 13:13:41;;;;;;;3.40;2.50;;;;;;;12.56;66.61;98268.50;5074692;28;20276;-72
2021/05/06 13:16:08;;;;;;;5.75;3.10;;;;;;;12.25;68.61;98273.84;5075167;28;20220;-72
2021/05/06 13:18:35;;;;;;;3.97;3.20;;;;;;;11.86;70.03;98263.59;5093032;28;20245;-70
2021/05/06 13:21:03;;;;;;;8.18;6.65;;;;;;;11.81;70.94;98257.75;5095376;28;20514;-71
2021/05/06 13:23:32;;;;;;;3.08;2.75;;;;;;;11.82;71.54;98240.56;5094827;28;20265;-72
2021/05/06 13:26:00;;;;;;;4.22;3.22;;;;;;;11.72;72.70;98230.72;5094534;28;20199;-71
2021/05/06 13:28:44;;;;;;;3.53;3.00;;;;;;;11.76;71.93;98230.34;5094597;28;20676;-71
2021/05/06 13:31:15;;;;;;;2.67;2.20;;;;;;;11.45;72.61;98221.28;5094663;28;20203;-72
2021/05/06 13:33:41;;;;;;;2.78;2.58;;;;;;;11.40;73.21;98234.28;5094437;28;20184;-73
2021/05/06 13:36:10;;;;;;;4.82;2.40;;;;;;;11.26;73.96;98219.22;5094630;28;20225;-73
2021/05/06 13:38:47;;;;;;;2.72;2.22;;;;;;;11.42;75.05;98203.53;5094350;28;20650;-74
2021/05/06 13:41:14;;;;;;;5.47;4.13;;;;;;;11.29;76.00;98199.28;5093633;28;20628;-72
2021/05/06 13:43:40;;;;;;;3.13;2.80;;;;;;;11.38;75.18;98185.91;5094232;28;20219;-72
2021/05/06 13:46:09;;;;;;;2.85;2.55;;;;;;;11.63;74.21;98179.28;5094543;28;20243;-73
2021/05/06 13:48:36;;;;;;;4.05;2.60;;;;;;;11.85;73.52;98172.91;5094378;28;20689;-74
2021/05/06 13:51:02;;;;;;;3.78;3.05;;;;;;;12.30;71.55;98172.63;5093249;28;20232;-73
2021/05/06 13:53:28;;;;;;;4.07;2.40;;;;;;;12.71;70.66;98164.56;5094643;28;20184;-73
2021/05/06 13:55:54;;;;;;;3.25;2.95;;;;;;;12.85;69.55;98156.03;5093984;28;20229;-73
2021/05/06 13:58:20;;;;;;;3.63;3.08;;;;;;;13.05;68.50;98161.50;5094718;28;20594;-72
2021/05/06 14:00:47;;;;;;;3.58;2.80;;;;;;;13.01;68.62;98160.06;5094007;28;20724;-72
2021/05/06 14:03:14;;;;;;;4.18;3.08;;;;;;;12.49;70.06;98158.34;5093963;28;20580;-72
2021/05/06 14:05:40;;;;;;;5.55;3.97;;;;;;;12.17;73.61;98149.56;5093934;28;20530;-72
2021/05/06 14:08:07;;;;;;;9.18;3.85;;;;;;;11.79;74.48;98146.47;5093116;28;20207;-72
2021/05/06 14:10:33;;;;;;;7.47;3.25;;;;;;;11.41;74.91;98133.56;5093599;28;20192;-72
2021/05/06 14:12:59;;;;;;;3.17;2.95;;;;;;;11.15;76.40;98136.63;5094315;28;20210;-74
2021/05/06 14:15:25;;;;;;;3.50;2.42;;;;;;;10.84;78.01;98130.25;5093748;28;20192;-72
2021/05/06 14:17:51;;;;;;;4.00;3.60;;;;;;;11.02;78.83;98111.72;5093496;28;20199;-71
2021/05/06 14:20:20;;;;;;;3.08;2.83;;;;;;;10.65;78.93;98117.47;5093399;28;20622;-72
2021/05/06 14:22:46;;;;;;;7.43;4.22;;;;;;;10.72;81.06;98112.41;5093834;28;20206;-71
2021/05/06 14:25:13;;;;;;;3.30;2.95;;;;;;;10.59;81.17;98107.19;5093363;28;20195;-73
2021/05/06 14:27:39;;;;;;;4.50;2.83;;;;;;;10.71;81.69;98103.47;5093617;28;20198;-70
2021/05/06 14:30:06;;;;;;;4.78;4.38;;;;;;;10.51;81.74;98094.34;5093452;28;20297;-74
2021/05/06 14:32:32;;;;;;;3.42;3.03;;;;;;;10.58;81.68;98089.31;5093167;28;20324;-71